»·PEaware :: N572TD KPRC-KBLH

N572TD :: KPRC-KBLH

FLIGHT INFORMATION

Flight Status: Arrived
Operator: Privately registered:
United States
More flights under this callsign
Pilot: Utku A. (15598)
Aircraft: CESSNA 208 CARAVAN
(C208)
More flights by this aircraft type
Origin: KPRC Love
United States
Destination: KBLH Blythe
United States
More flights between these airports :: More routes between these airports
Route: +
File this flight plan on PilotEdge
Remarks:
Altitude:
(Current/Filed)
10,500ft
Speed:
(Current/Filed)
0kts
Departed: 17-May-18 07:46 AM
Arrived: 17-May-18 08:32 AM
Distance/Time
Traveled:
130nm/0:45
Distance/Time
To Go:
Arrived

Flight Plot

Page will automatically refresh every two minutes.

Flight plan parsing failed; only flown route is shown


Map Options




Map Legend


Flown Route
Filed Route
Departure Airport
Arrival Airport
Navaid (VOR, NDB)
Fix

Horizontal Profiles

Position Reports

Time Latitude Longitude Heading Altitude Ground
Speed
17-May-18 07:45 34.570705 -112.601189 236 10468ft 138kts
17-May-18 07:46 34.549565 -112.643926 238 10445ft 156kts
17-May-18 07:47 34.529909 -112.691860 226 10471ft 159kts
17-May-18 07:48 34.503819 -112.734756 235 10472ft 161kts
17-May-18 07:49 34.481718 -112.782294 237 10472ft 162kts
17-May-18 07:50 34.460454 -112.830452 238 10472ft 162kts
17-May-18 07:51 34.439356 -112.878619 238 10472ft 161kts
17-May-18 07:52 34.418310 -112.926681 238 10472ft 161kts
17-May-18 07:53 34.397341 -112.974515 238 10471ft 160kts
17-May-18 07:54 34.376402 -113.022218 238 10471ft 160kts
17-May-18 07:55 34.355565 -113.069629 239 10471ft 159kts
17-May-18 07:56 34.334724 -113.116983 239 10471ft 159kts
17-May-18 07:57 34.313799 -113.164459 239 10471ft 159kts
17-May-18 07:58 34.292910 -113.211787 239 10470ft 159kts
17-May-18 07:59 34.272003 -113.259090 239 10470ft 159kts
17-May-18 08:00 34.251111 -113.306283 239 10455ft 160kts
17-May-18 08:01 34.230048 -113.353802 239 10413ft 160kts
17-May-18 08:02 34.209013 -113.401208 240 10366ft 160kts
17-May-18 08:03 34.187939 -113.448645 240 10328ft 159kts
17-May-18 08:04 34.166940 -113.495851 240 10300ft 159kts
17-May-18 08:05 34.145981 -113.542903 241 10286ft 159kts
17-May-18 08:06 34.125099 -113.589709 241 10286ft 158kts
17-May-18 08:07 34.104152 -113.636595 241 10285ft 158kts
17-May-18 08:08 34.083330 -113.683132 240 10289ft 159kts
17-May-18 08:09 34.062370 -113.729925 240 10289ft 159kts
17-May-18 08:10 34.041286 -113.776929 240 10288ft 159kts
17-May-18 08:11 34.020492 -113.823213 240 10370ft 157kts
17-May-18 08:12 33.999558 -113.869757 240 10370ft 158kts
17-May-18 08:13 33.978362 -113.916820 240 10240ft 165kts
17-May-18 08:14 33.955999 -113.966453 241 9768ft 172kts
17-May-18 08:15 33.932992 -114.017427 241 9253ft 173kts
17-May-18 08:16 33.909877 -114.068570 242 8501ft 172kts
17-May-18 08:17 33.887377 -114.118259 242 7695ft 172kts
17-May-18 08:18 33.864321 -114.169100 243 6891ft 173kts
17-May-18 08:19 33.842474 -114.220742 246 6104ft 174kts
17-May-18 08:20 33.819935 -114.272543 243 5330ft 175kts
17-May-18 08:21 33.797394 -114.322102 241 4555ft 166kts
17-May-18 08:22 33.775253 -114.370629 241 3771ft 165kts
17-May-18 08:23 33.753042 -114.419267 241 2999ft 166kts
17-May-18 08:24 33.731928 -114.465438 241 2281ft 166kts
17-May-18 08:25 33.710609 -114.513694 243 1796ft 158kts
17-May-18 08:26 33.694251 -114.561523 254 1609ft 152kts
17-May-18 08:27 33.680330 -114.608054 241 1492ft 147kts
17-May-18 08:28 33.656232 -114.646478 218 1455ft 142kts
17-May-18 08:29 33.626737 -114.663598 194 1310ft 89kts
17-May-18 08:30 33.616284 -114.685264 269 763ft 84kts
17-May-18 08:31 33.616387 -114.712570 269 396ft 61kts
17-May-18 08:32 33.614980 -114.714893 90 396ft 12kts
17-May-18 08:33 33.614209 -114.712775 186 394ft 5kts
17-May-18 08:34 33.614131 -114.712666 0 394ft 0kts
17-May-18 08:35 33.614131 -114.712666 0 394ft 0kts
17-May-18 08:36 33.614131 -114.712666 0 394ft 0kts
17-May-18 08:37 33.614131 -114.712666 0 394ft 0kts
17-May-18 08:38 33.614131 -114.712666 0 394ft 0kts

Navigation Log

Ident Type
Flight plan parsing failed, navigation log unavailable